Terminal Aerodrome Forecast
Issued by NWS

Home | Current Version | Previous Version | Text Only | Print | Product List | Glossary On
Versions: 1 2 3 4 5 6 7 8 9 10 11 12 13 14
000
FTUS43 KICT 062340
TAFCNU
TAF
KCNU 062340Z 0700/0724 33010KT 3SM +TSRA SCT015 OVC050CB
      TEMPO 0700/0701 VRB25G40KT 1/2SM +TSRA BKN007 OVC025CB
     FM070300 36010KT 5SM TSRA SCT015 OVC025CB
     FM070800 02007KT P6SM VCSH SCT015 OVC040
     FM071500 04007KT P6SM OVC050=

USA.gov is the U.S. government's official web portal to all federal, state and local government web resources and services.